Neenah, WI

4:52 AM CDT on October 24, 2014 (GMT -0500)
Austin Straubel International | Change Station
CLOSE
Current Station
Airport
Location: Green Bay,
Elevation: 686 ft
Nearby Weather Stations

Elev 686 ft 44.48 °N, 88.14 °W | Updated 59 minutes ago

Fog
Fog
48 °F
Feels Like 48 °F
N
6
Wind Variable Wind from West

Today
High -- | Low -- °F
--% Chance of Precip.
Yesterday
High -- | Low -- °F
Precip. -- in
7:20 AM 5:55 PM
New Moon, 0% visible
Pressure 30.04 in
Visibility 3.0 miles
Clouds Overcast 1400 ft
Dew Point 47 °F
Humidity 96%
Rainfall 0.00 in
Snow Depth Not available.
UV 0 out of 12
Pollen .10 out of 12
Air Quality Not available.
Flu Activity Not available.
METAR KGRB 240853Z AUTO 26005KT 3SM BR OVC014 09/08 A3002 RMK AO2 SLP170 T00890083 50004

More Conditions Fewer Conditions

Pressure 30.04 in
Visibility 3.0 miles
Clouds Overcast 1400 ft
Dew Point 47 °F
Humidity 96%
Rainfall 0.00 in
Snow Depth Not available.
UV 0 out of 12
Pollen .10 out of 12
Air Quality Not available.
Flu Activity Not available.
METAR KGRB 240853Z AUTO 26005KT 3SM BR OVC014 09/08 A3002 RMK AO2 SLP170 T00890083 50004

More Conditions Fewer Conditions

10-Day Weather Forecast

Almanac

Astronomy

Oct. 24, 2014 Rise Set
Actual Time 7:20 AM CDT 5:55 PM CDT
Civil Twilight 6:50 AM CDT 6:24 PM CDT
Nautical Twilight 6:16 AM CDT 6:58 PM CDT
Astronomical Twilight 5:43 AM CDT 7:32 PM CDT
Moon 8:00 AM CDT 6:33 PM CDT
Length of Visible Light 11h 34m
Length of Day
10h 35m
Tomorrow will be 2m 50s shorter.
New Moon, 0% of the Moon is Illuminated
Today
New Moon
Oct 30
First Quarter
Nov 6
Full
Nov 14
Last Quarter
Nov 22
New

Today's Extremes

State Highs State Lows

Community

WunderPhotos

Upload Photos

1,764,513 photos uploaded!

WunderBlogs® & News

Nearby

Snow Depth

Station Depth Elevation
No new snow has been reported.

Earthquake Activity

City Distance Mag. Time & Date
No recent earthquake activity has been reported nearby.
Minimum magnitude displayed is 2.5.

Coastal Water Temperatures

Place Temperature
No Stations Reporting

Nearby Weather Stations